Time;durP1;ratioP1;P1;durP2;ratioP2;P2;SDS_P1;SDS_P2;PMS_P1;PMS_P2;Temp;Humidity;BMP_temperature;BMP_pressure;BME280_temperature;BME280_humidity;BME280_pressure;Samples;Min_cycle;Max_cycle;Signal;HPM_P1;HPM_P2
2022/06/03 00:02:35;;;;;;;;;3.75;3.75;;;;;21.19;37.68;101253.16;5112613;27;45310;-48
2022/06/03 00:05:39;;;;;;;;;5.00;5.00;;;;;21.18;37.51;101256.84;5091242;27;45513;-50
2022/06/03 00:08:13;;;;;;;;;3.00;3.00;;;;;21.17;37.54;101257.81;5108035;27;45384;-51
2022/06/03 00:10:45;;;;;;;;;4.00;3.00;;;;;21.13;37.33;101256.41;5108185;27;45521;-50
2022/06/03 00:13:54;;;;;;;;;3.50;3.50;;;;;21.11;37.40;101260.25;5109730;27;45296;-52
2022/06/03 00:16:41;;;;;;;;;2.50;2.50;;;;;21.07;37.45;101257.00;5108790;27;45353;-49
2022/06/03 00:19:20;;;;;;;;;3.00;3.00;;;;;21.01;37.44;101254.91;5107978;27;45326;-48
2022/06/03 00:21:52;;;;;;;;;2.50;2.50;;;;;20.99;37.79;101245.31;5111947;27;45568;-48
2022/06/03 00:24:42;;;;;;;;;4.00;4.00;;;;;20.96;37.67;101248.31;5111991;27;45282;-48
2022/06/03 00:27:34;;;;;;;;;3.50;3.50;;;;;20.95;37.88;101241.28;5107885;27;45694;-52
2022/06/03 00:30:23;;;;;;;;;3.00;3.00;;;;;20.92;37.57;101250.41;5111286;27;45285;-47
2022/06/03 00:33:17;;;;;;;;;4.00;4.00;;;;;20.88;37.74;101241.84;5109434;27;45295;-50
2022/06/03 00:35:55;;;;;;;;;2.75;2.75;;;;;20.89;37.81;101240.84;5085479;27;45397;-51
2022/06/03 00:38:45;;;;;;;;;4.25;3.75;;;;;20.87;37.90;101236.63;5110108;27;45454;-51
2022/06/03 00:41:28;;;;;;;;;4.50;4.50;;;;;20.83;37.64;101238.75;5107158;27;45410;-47
2022/06/03 00:44:49;;;;;;;;;3.00;3.00;;;;;20.83;37.67;101235.22;5106418;27;45339;-48
2022/06/03 00:47:20;;;;;;;;;3.00;3.00;;;;;20.78;37.89;101234.84;5078414;27;45481;-49
2022/06/03 00:50:17;;;;;;;;;4.25;2.50;;;;;20.76;38.32;101243.00;5111060;27;46129;-48
2022/06/03 00:53:01;;;;;;;;;6.00;3.50;;;;;20.74;38.28;101246.81;5100632;27;45720;-47
2022/06/03 00:55:36;;;;;;;;;4.00;4.00;;;;;20.75;38.22;101246.66;5081176;27;45526;-49
2022/06/03 00:58:43;;;;;;;;;4.25;3.75;;;;;20.71;37.79;101250.63;5081417;28;45553;-48
2022/06/03 01:01:11;;;;;;;;;4.75;4.00;;;;;20.64;37.89;101244.16;5091347;27;45353;-47
2022/06/03 01:04:21;;;;;;;;;4.00;4.00;;;;;20.62;38.35;101244.31;5101458;27;45290;-49
2022/06/03 01:07:02;;;;;;;;;3.75;2.50;;;;;20.61;38.24;101245.28;5101427;27;45494;-54
2022/06/03 01:09:58;;;;;;;;;4.00;4.00;;;;;20.61;38.33;101244.44;5101712;27;45520;-51
2022/06/03 01:12:33;;;;;;;;;4.00;4.00;;;;;20.61;38.39;101244.44;5101664;27;45241;-53
2022/06/03 01:15:08;;;;;;;;;4.75;3.00;;;;;20.62;38.00;101248.81;5101311;27;45309;-52
2022/06/03 01:17:58;;;;;;;;;3.25;3.00;;;;;20.58;38.48;101248.25;5101552;27;45393;-49
2022/06/03 01:20:34;;;;;;;;;4.75;4.50;;;;;20.58;38.24;101239.38;5101600;27;45311;-50
2022/06/03 01:23:22;;;;;;;;;4.50;3.50;;;;;20.56;38.52;101242.19;5101111;27;45422;-49
2022/06/03 01:26:15;;;;;;;;;3.00;3.00;;;;;20.53;38.14;101252.34;5101362;27;45330;-49
2022/06/03 01:29:03;;;;;;;;;4.00;4.00;;;;;20.52;38.65;101246.13;5101466;27;45457;-49
2022/06/03 01:31:54;;;;;;;;;4.50;4.00;;;;;20.52;38.59;101242.63;5080093;27;45304;-47
2022/06/03 01:34:19;;;;;;;;;2.75;2.75;;;;;20.49;38.80;101234.88;5104676;27;45903;-49
2022/06/03 01:36:54;;;;;;;;;5.25;4.00;;;;;20.47;38.21;101236.88;5104781;27;45394;-46
2022/06/03 01:39:53;;;;;;;;;4.75;4.00;;;;;20.45;38.46;101233.47;5104971;27;45409;-50
2022/06/03 01:42:37;;;;;;;;;3.00;3.00;;;;;20.42;38.32;101231.06;5105043;27;45269;-48
2022/06/03 01:45:33;;;;;;;;;4.00;4.00;;;;;20.35;38.73;101228.94;5104845;27;46230;-48
2022/06/03 01:48:29;;;;;;;;;4.00;4.00;;;;;20.23;38.69;101222.06;5104845;27;45281;-49
2022/06/03 01:51:01;;;;;;;;;6.00;5.00;;;;;20.18;38.48;101224.31;5104662;27;45203;-48
2022/06/03 01:53:58;;;;;;;;;2.75;2.25;;;;;20.14;38.49;101225.56;5104953;27;45376;-48
2022/06/03 01:56:41;;;;;;;;;4.00;2.75;;;;;20.09;38.97;101211.78;5054615;28;45527;-49
2022/06/03 01:59:09;;;;;;;;;4.00;3.25;;;;;20.05;38.80;101210.38;5091427;27;45454;-47
2022/06/03 02:02:03;;;;;;;;;3.25;3.00;;;;;20.03;38.97;101212.34;5104549;27;45485;-47
2022/06/03 02:04:49;;;;;;;;;3.75;3.75;;;;;19.98;38.84;101207.41;5104691;27;45443;-47
2022/06/03 02:07:37;;;;;;;;;5.00;4.00;;;;;19.95;39.07;101215.72;5104253;27;45312;-48
2022/06/03 02:10:27;;;;;;;;;5.50;4.50;;;;;19.94;39.20;101202.50;5104310;27;45333;-48
2022/06/03 02:13:36;;;;;;;;;3.00;3.00;;;;;19.89;39.26;101202.91;5104563;27;45217;-49
2022/06/03 02:16:27;;;;;;;;;3.75;3.75;;;;;19.84;39.24;101197.16;5049430;28;45637;-47
2022/06/03 02:19:08;;;;;;;;;4.00;4.00;;;;;19.84;39.14;101199.81;5093123;27;45248;-46
2022/06/03 02:21:44;;;;;;;;;4.00;4.00;;;;;19.80;39.47;101191.22;5104014;27;45357;-48
2022/06/03 02:24:34;;;;;;;;;3.50;3.50;;;;;19.79;39.12;101186.84;5104447;27;45319;-48
2022/06/03 02:27:24;;;;;;;;;4.00;3.25;;;;;19.79;39.52;101178.00;5104236;27;45711;-50
2022/06/03 02:30:26;;;;;;;;;4.00;3.00;;;;;19.74;39.31;101167.72;5104064;27;45334;-51
2022/06/03 02:33:28;;;;;;;;;5.75;4.25;;;;;19.72;39.60;101177.69;5103935;27;45237;-46
2022/06/03 02:36:12;;;;;;;;;4.00;4.00;;;;;19.68;39.52;101170.13;5103939;27;45495;-51
2022/06/03 02:39:00;;;;;;;;;4.50;4.25;;;;;19.65;39.52;101165.03;5104011;27;45185;-47
2022/06/03 02:41:58;;;;;;;;;3.00;2.50;;;;;19.65;39.77;101171.22;5103879;27;45230;-50
2022/06/03 02:44:51;;;;;;;;;4.75;4.75;;;;;19.66;39.52;101159.53;5103226;27;45328;-49
2022/06/03 02:47:41;;;;;;;;;7.00;5.00;;;;;19.65;39.55;101154.34;5103789;27;45239;-50
2022/06/03 02:50:13;;;;;;;;;1.50;1.50;;;;;19.63;39.82;101162.50;5103790;27;45261;-51
2022/06/03 02:53:18;;;;;;;;;5.50;5.50;;;;;19.61;40.01;101144.94;5090409;27;45290;-48
2022/06/03 02:56:21;;;;;;;;;4.25;4.25;;;;;19.60;39.99;101154.78;5103429;27;45383;-49
2022/06/03 02:59:08;;;;;;;;;5.00;5.00;;;;;19.58;39.81;101151.38;5103516;27;45171;-47
2022/06/03 03:02:00;;;;;;;;;4.50;4.00;;;;;19.55;40.27;101145.44;5103797;27;45330;-47
2022/06/03 03:05:08;;;;;;;;;5.00;3.00;;;;;19.55;40.00;101153.47;5103526;27;45229;-48
2022/06/03 03:07:52;;;;;;;;;4.50;3.25;;;;;19.51;40.30;101161.78;5071768;27;45361;-48
2022/06/03 03:10:26;;;;;;;;;3.50;3.50;;;;;19.49;40.35;101152.19;5103484;27;45358;-47
2022/06/03 03:13:10;;;;;;;;;4.75;4.75;;;;;19.45;40.15;101148.97;5103646;27;45245;-48
2022/06/03 03:16:00;;;;;;;;;4.50;4.25;;;;;19.45;40.02;101148.13;5103668;27;45361;-49
2022/06/03 03:18:38;;;;;;;;;5.00;5.00;;;;;19.43;39.97;101144.72;5103240;27;45372;-47
2022/06/03 03:21:26;;;;;;;;;5.50;4.75;;;;;19.43;40.13;101140.25;5103093;27;45228;-48
2022/06/03 03:24:21;;;;;;;;;4.50;4.25;;;;;19.42;40.21;101141.19;5053331;27;45243;-50
2022/06/03 03:27:14;;;;;;;;;6.00;4.00;;;;;19.42;40.39;101145.69;5092045;27;45547;-48
2022/06/03 03:29:42;;;;;;;;;4.00;4.00;;;;;19.42;40.11;101154.56;5103193;27;45311;-50
2022/06/03 03:32:19;;;;;;;;;3.75;3.75;;;;;19.43;40.22;101163.41;5103120;27;45316;-47
2022/06/03 03:35:11;;;;;;;;;5.00;4.75;;;;;19.41;40.53;101163.56;5103085;27;45493;-51
2022/06/03 03:38:13;;;;;;;;;4.00;4.00;;;;;19.37;40.50;101156.81;5102610;27;46340;-51
2022/06/03 03:41:01;;;;;;;;;5.25;5.00;;;;;19.33;40.25;101165.22;5102690;27;45361;-50
2022/06/03 03:43:38;;;;;;;;;5.00;3.50;;;;;19.33;40.47;101152.72;5103059;27;45419;-52
2022/06/03 03:46:31;;;;;;;;;5.25;4.75;;;;;19.34;40.64;101145.53;5102834;27;45396;-49
2022/06/03 03:49:18;;;;;;;;;4.75;4.50;;;;;19.30;40.30;101144.16;5102611;27;46030;-53
2022/06/03 03:51:58;;;;;;;;;5.25;5.00;;;;;19.30;40.69;101134.31;5094783;27;45278;-52
2022/06/03 03:54:56;;;;;;;;;3.75;3.00;;;;;19.30;40.84;101133.47;5102931;27;45291;-50
2022/06/03 03:57:59;;;;;;;;;6.00;6.00;;;;;19.33;40.89;101135.84;5101637;27;45264;-51
2022/06/03 04:00:44;;;;;;;;;5.25;5.25;;;;;19.31;40.38;101141.34;5102511;27;45454;-49
2022/06/03 04:03:36;;;;;;;;;4.75;4.75;;;;;19.33;40.95;101149.19;5050556;28;45443;-50
2022/06/03 04:06:19;;;;;;;;;4.75;4.75;;;;;19.31;40.97;101151.16;5081321;27;45349;-48
2022/06/03 04:09:07;;;;;;;;;6.25;6.25;;;;;19.29;40.79;101158.50;5102667;27;45512;-51
2022/06/03 04:11:53;;;;;;;;;5.50;3.25;;;;;19.25;41.00;101155.22;5102367;27;45338;-49
2022/06/03 04:14:48;;;;;;;;;6.25;5.00;;;;;19.22;40.64;101163.53;5102474;27;45227;-50
2022/06/03 04:17:32;;;;;;;;;6.00;4.75;;;;;19.19;41.15;101167.28;5102306;27;45301;-48
2022/06/03 04:20:03;;;;;;;;;4.00;4.00;;;;;19.18;40.55;101162.09;5102620;27;45286;-50
2022/06/03 04:23:06;;;;;;;;;5.00;5.00;;;;;19.19;41.00;101163.78;5101835;27;46422;-50
2022/06/03 04:26:00;;;;;;;;;6.25;4.50;;;;;19.20;41.07;101160.16;5102282;27;45321;-49
2022/06/03 04:28:44;;;;;;;;;6.00;4.25;;;;;19.22;41.19;101153.69;5102449;27;45217;-48
2022/06/03 04:31:29;;;;;;;;;4.00;4.00;;;;;19.25;41.02;101147.22;5101818;27;45605;-51
2022/06/03 04:34:19;;;;;;;;;7.50;4.50;;;;;19.29;41.24;101131.78;5102165;27;45598;-50
2022/06/03 04:37:12;;;;;;;;;6.50;4.25;;;;;19.33;41.36;101136.69;5101944;27;45338;-50
2022/06/03 04:39:52;;;;;;;;;5.00;5.00;;;;;19.40;41.09;101143.16;5101990;27;45231;-48
2022/06/03 04:42:36;;;;;;;;;4.25;4.25;;;;;19.42;41.43;101151.88;5101986;27;45298;-51
2022/06/03 04:45:13;;;;;;;;;5.50;5.00;;;;;19.45;41.22;101159.66;5102006;27;45391;-47
2022/06/03 04:48:16;;;;;;;;;6.00;5.00;;;;;19.42;41.23;101161.72;5101954;27;45228;-49
2022/06/03 04:51:19;;;;;;;;;6.75;4.25;;;;;19.30;41.10;101162.84;5101639;27;45338;-50
2022/06/03 04:54:12;;;;;;;;;3.50;3.50;;;;;19.27;40.96;101163.94;5102035;27;45333;-47
2022/06/03 04:56:52;;;;;;;;;6.00;5.00;;;;;19.25;41.45;101168.59;5101478;27;45293;-51
2022/06/03 05:00:00;;;;;;;;;4.75;4.75;;;;;19.23;41.27;101163.38;5102057;27;45165;-47
2022/06/03 05:02:47;;;;;;;;;6.50;4.00;;;;;19.22;41.65;101174.22;5101355;27;45472;-48
2022/06/03 05:05:31;;;;;;;;;5.25;5.25;;;;;19.21;41.32;101168.03;5101664;27;45347;-49
2022/06/03 05:08:15;;;;;;;;;7.75;5.00;;;;;19.23;41.71;101167.88;5100953;27;45685;-49
2022/06/03 05:11:18;;;;;;;;;8.00;6.25;;;;;19.25;41.86;101166.75;5101621;27;45177;-49
2022/06/03 05:14:21;;;;;;;;;7.75;5.00;;;;;19.27;41.39;101161.28;5101605;27;45490;-53
2022/06/03 05:16:52;;;;;;;;;6.50;5.00;;;;;19.27;41.47;101152.41;5101669;27;45462;-47
2022/06/03 05:19:30;;;;;;;;;7.75;5.75;;;;;19.25;41.52;101144.53;5101297;27;46203;-48
2022/06/03 05:22:10;;;;;;;;;5.50;5.00;;;;;19.25;41.94;101139.19;5101317;27;45459;-47
2022/06/03 05:24:57;;;;;;;;;5.00;5.00;;;;;19.25;42.00;101136.53;5082605;27;45312;-58
2022/06/03 05:28:03;;;;;;;;;7.25;6.00;;;;;19.27;41.98;101133.72;5101615;27;45303;-49
2022/06/03 05:31:17;;;;;;;;;5.00;5.00;;;;;19.27;42.05;101141.72;5104234;27;46128;-47
2022/06/03 05:33:51;;;;;;;;;7.25;6.00;;;;;19.25;41.98;101152.56;5065371;27;45359;-49
2022/06/03 05:36:23;;;;;;;;;7.00;5.25;;;;;19.24;41.83;101148.19;5099965;27;45470;-48
2022/06/03 05:39:19;;;;;;;;;7.25;5.75;;;;;19.26;42.04;101151.56;5080910;28;45397;-47
2022/06/03 05:42:24;;;;;;;;;5.00;5.00;;;;;19.28;42.08;101156.81;5087515;27;45221;-47
2022/06/03 05:45:17;;;;;;;;;5.00;5.00;;;;;19.29;42.32;101155.81;5090189;27;45493;-46
2022/06/03 05:48:02;;;;;;;;;6.25;6.00;;;;;19.32;42.26;101148.34;5101114;27;45237;-52
2022/06/03 05:50:56;;;;;;;;;7.00;6.00;;;;;19.38;42.38;101149.66;5101212;27;45239;-52
2022/06/03 05:53:40;;;;;;;;;6.00;4.25;;;;;19.40;42.18;101143.16;5100729;27;46046;-50
2022/06/03 05:56:18;;;;;;;;;7.50;5.50;;;;;19.41;42.48;101144.00;5100651;27;45350;-50
2022/06/03 05:59:00;;;;;;;;;6.25;5.00;;;;;19.41;42.43;101139.50;5100880;27;45284;-49
2022/06/03 06:01:34;;;;;;;;;8.75;5.75;;;;;19.43;42.72;101139.38;5109939;27;45357;-50
2022/06/03 06:04:13;;;;;;;;;7.50;6.25;;;;;19.45;42.41;101132.09;5087516;27;45321;-53
2022/06/03 06:07:07;;;;;;;;;6.50;6.50;;;;;19.46;42.63;101144.47;5100397;27;45500;-53
2022/06/03 06:09:50;;;;;;;;;6.75;6.00;;;;;19.47;42.68;101138.13;5100850;27;45251;-49
2022/06/03 06:12:19;;;;;;;;;8.00;6.00;;;;;19.51;42.70;101145.75;5100739;27;45324;-52
2022/06/03 06:15:03;;;;;;;;;11.75;6.25;;;;;19.55;42.50;101148.13;5100415;27;46213;-53
2022/06/03 06:17:47;;;;;;;;;7.00;7.00;;;;;19.59;43.00;101158.44;5109252;27;45273;-52
2022/06/03 06:20:40;;;;;;;;;6.00;5.75;;;;;19.62;42.65;101151.97;5070664;27;45302;-49
2022/06/03 06:23:20;;;;;;;;;5.75;5.75;;;;;19.62;43.10;101143.94;5103778;27;45256;-50
2022/06/03 06:26:00;;;;;;;;;8.00;6.25;;;;;19.64;43.05;101142.81;5103832;27;45399;-53
2022/06/03 06:28:32;;;;;;;;;6.75;6.75;;;;;19.65;43.07;101139.16;5104245;27;45322;-53
2022/06/03 06:31:24;;;;;;;;;6.75;5.00;;;;;19.67;42.95;101147.03;5103919;27;45207;-49
2022/06/03 06:34:15;;;;;;;;;8.75;5.50;;;;;19.68;42.84;101146.06;5103666;27;45451;-54
2022/06/03 06:36:58;;;;;;;;;7.00;7.00;;;;;19.68;42.93;101133.53;5103224;27;46100;-50
2022/06/03 06:39:53;;;;;;;;;6.25;6.00;;;;;19.66;42.80;101131.97;5103575;27;45452;-52
2022/06/03 06:42:27;;;;;;;;;5.75;5.00;;;;;19.63;43.29;101133.09;5103588;27;45437;-50
2022/06/03 06:45:27;;;;;;;;;6.25;5.50;;;;;19.64;42.89;101133.94;5104168;27;45342;-53
2022/06/03 06:47:55;;;;;;;;;7.50;6.25;;;;;19.62;43.34;101134.09;5103723;27;45347;-55
2022/06/03 06:50:32;;;;;;;;;9.25;5.50;;;;;19.63;43.48;101130.44;5103272;27;45252;-55
2022/06/03 06:53:28;;;;;;;;;8.00;7.00;;;;;19.70;43.54;101130.72;5103349;27;45157;-54
2022/06/03 06:56:05;;;;;;;;;7.25;7.00;;;;;19.77;43.69;101127.34;5103664;27;45252;-54
2022/06/03 06:58:55;;;;;;;;;8.00;6.00;;;;;19.81;43.74;101125.22;5103055;27;45486;-54
2022/06/03 07:01:45;;;;;;;;;6.75;5.25;;;;;19.87;43.82;101121.16;5103623;27;45291;-55
2022/06/03 07:04:19;;;;;;;;;8.00;5.00;;;;;19.89;43.79;101119.16;5102615;27;45290;-55
2022/06/03 07:06:52;;;;;;;;;9.50;6.75;;;;;19.91;43.93;101122.56;5103396;27;45398;-55
2022/06/03 07:09:40;;;;;;;;;9.50;8.50;;;;;19.97;43.67;101121.97;5103181;27;46437;-55
2022/06/03 07:12:28;;;;;;;;;8.00;6.75;;;;;20.00;43.72;101122.56;5103217;27;45472;-56
2022/06/03 07:14:59;;;;;;;;;8.25;7.00;;;;;20.04;43.89;101117.75;5103209;27;45179;-51
2022/06/03 07:20:32;;;;;;;;;8.50;8.00;;;;;20.14;43.74;101118.56;5103319;27;45848;-55
2022/06/03 07:23:04;;;;;;;;;8.00;7.50;;;;;20.18;44.07;101119.16;5102980;27;45361;-53
2022/06/03 07:25:52;;;;;;;;;10.00;6.25;;;;;20.20;43.62;101112.66;5102979;27;45409;-54
2022/06/03 07:28:56;;;;;;;;;19.75;10.75;;;;;20.25;43.94;101123.78;5102406;27;45363;-50
2022/06/03 07:31:34;;;;;;;;;8.25;7.00;;;;;20.29;43.99;101117.13;5101860;27;45433;-55
2022/06/03 07:34:32;;;;;;;;;9.00;7.00;;;;;20.37;44.11;101121.75;5103041;27;45283;-55
2022/06/03 07:37:16;;;;;;;;;8.50;6.50;;;;;20.37;43.78;101129.78;5103180;27;45260;-53
2022/06/03 07:40:04;;;;;;;;;11.75;9.25;;;;;20.37;43.78;101121.75;5103197;27;45345;-56
2022/06/03 07:42:32;;;;;;;;;6.00;6.00;;;;;20.40;43.92;101129.53;5100981;27;45541;-56
2022/06/03 07:45:26;;;;;;;;;6.75;6.75;;;;;20.41;43.95;101128.53;5101786;27;45473;-54
2022/06/03 07:47:54;;;;;;;;;6.50;6.00;;;;;20.46;43.98;101130.78;5102403;27;46086;-54
2022/06/03 07:50:21;;;;;;;;;8.00;7.00;;;;;20.47;44.26;101141.38;5102282;27;45440;-55
2022/06/03 07:53:07;;;;;;;;;7.75;6.25;;;;;20.51;43.93;101144.59;5102052;27;46184;-56
2022/06/03 07:55:35;;;;;;;;;11.25;8.25;;;;;20.57;44.13;101152.03;5101725;27;45421;-56
2022/06/03 07:58:07;;;;;;;;;8.75;7.00;;;;;20.60;44.12;101159.75;5102658;27;45335;-56
2022/06/03 08:00:35;;;;;;;;;11.50;8.50;;;;;20.61;44.01;101154.25;5102816;27;45215;-54
2022/06/03 08:03:17;;;;;;;;;8.25;7.00;;;;;20.62;44.13;101152.44;5102664;27;46304;-54
2022/06/03 08:05:45;;;;;;;;;7.75;7.00;;;;;20.65;44.45;101151.31;5102554;27;45497;-54
2022/06/03 08:11:05;;;;;;;;;10.00;8.75;;;;;20.73;44.15;101148.75;5102597;27;45517;-55
2022/06/03 08:13:39;;;;;;;;;7.50;7.00;;;;;20.71;44.16;101150.72;5102114;27;45426;-54
2022/06/03 08:16:11;;;;;;;;;9.00;7.00;;;;;20.73;44.47;101143.38;5102235;27;45307;-51
2022/06/03 08:18:43;;;;;;;;;8.75;8.75;;;;;20.78;44.48;101147.31;5102746;27;45162;-53
2022/06/03 08:21:31;;;;;;;;;9.50;7.25;;;;;20.84;44.47;101141.34;5101874;27;45523;-55
2022/06/03 08:23:59;;;;;;;;;9.25;8.75;;;;;20.90;44.70;101142.59;5102268;27;45403;-56
2022/06/03 08:26:27;;;;;;;;;8.50;7.00;;;;;20.95;44.65;101137.66;5102073;27;45502;-54
2022/06/03 08:29:13;;;;;;;;;8.50;8.00;;;;;21.03;44.66;101144.94;5102200;27;45296;-54
2022/06/03 08:31:39;;;;;;;;;9.25;8.25;;;;;21.11;44.52;101142.38;5102106;27;45257;-56
2022/06/03 08:34:11;;;;;;;;;7.25;7.25;;;;;21.18;44.85;101136.25;5101954;27;45635;-53
2022/06/03 08:36:40;;;;;;;;;7.50;6.50;;;;;21.24;44.68;101124.09;5102104;27;45478;-56
2022/06/03 08:39:39;;;;;;;;;8.50;7.75;;;;;21.31;44.77;101127.88;5102064;27;45315;-55
2022/06/03 08:42:15;;;;;;;;;10.75;7.75;;;;;21.38;44.57;101122.75;5036217;28;45607;-54
2022/06/03 08:44:53;;;;;;;;;8.25;8.00;;;;;21.43;44.91;101117.81;5089517;27;45378;-52
2022/06/03 08:47:20;;;;;;;;;9.25;6.25;;;;;21.46;44.88;101112.97;5101912;27;45283;-55
2022/06/03 08:50:05;;;;;;;;;10.50;8.25;;;;;21.49;44.85;101109.16;5101821;27;45226;-54
2022/06/03 08:52:40;;;;;;;;;9.75;9.00;;;;;21.54;44.66;101112.19;5101692;27;45339;-56
2022/06/03 08:55:22;;;;;;;;;7.75;6.75;;;;;21.61;44.88;101112.44;5101323;27;46259;-54
2022/06/03 08:57:53;;;;;;;;;10.50;10.50;;;;;21.66;44.64;101110.16;5102101;27;45251;-56
2022/06/03 09:00:25;;;;;;;;;11.75;11.25;;;;;21.71;44.93;101114.03;5101840;27;45314;-54
2022/06/03 09:02:56;;;;;;;;;6.75;6.75;;;;;21.78;45.09;101110.75;5101956;27;45413;-55
2022/06/03 09:05:29;;;;;;;;;11.25;10.00;;;;;21.83;44.97;101105.78;5083023;27;45528;-56
2022/06/03 09:08:03;;;;;;;;;9.25;8.00;;;;;21.89;44.92;101108.69;5101454;27;45284;-55
2022/06/03 09:10:40;;;;;;;;;11.25;9.50;;;;;21.92;44.84;101103.00;5101283;27;45280;-54
2022/06/03 09:13:33;;;;;;;;;8.50;8.50;;;;;21.97;45.24;101097.16;5101493;27;45326;-57
2022/06/03 09:16:00;;;;;;;;;9.75;8.75;;;;;22.03;45.12;101093.84;5101700;27;46273;-54
2022/06/03 09:18:29;;;;;;;;;10.25;9.50;;;;;22.11;45.12;101095.78;5101460;27;45395;-56
2022/06/03 09:20:56;;;;;;;;;12.75;12.00;;;;;22.17;45.02;101089.78;5101274;27;45282;-56
2022/06/03 09:23:25;;;;;;;;;10.50;9.50;;;;;22.22;45.20;101095.53;5101522;27;45507;-56
2022/06/03 09:25:57;;;;;;;;;9.00;8.00;;;;;22.26;45.44;101100.41;5101177;27;46143;-55
2022/06/03 09:28:33;;;;;;;;;9.25;8.25;;;;;22.31;45.22;101086.53;5101461;27;45313;-56
2022/06/03 09:31:04;;;;;;;;;14.25;8.75;;;;;22.39;45.20;101097.31;5101194;27;45356;-55
2022/06/03 09:33:31;;;;;;;;;10.00;9.00;;;;;22.44;45.23;101102.22;5101488;27;45243;-57
2022/06/03 09:36:01;;;;;;;;;10.00;7.75;;;;;22.47;45.42;101107.25;5100567;27;46280;-55
2022/06/03 09:38:43;;;;;;;;;12.00;9.75;;;;;22.51;45.13;101101.41;5101074;27;45361;-56
2022/06/03 09:41:10;;;;;;;;;10.25;9.75;;;;;22.56;45.62;101108.97;5101048;27;45442;-56
2022/06/03 09:43:40;;;;;;;;;18.50;11.50;;;;;22.65;45.54;101109.84;5100917;27;45498;-55
2022/06/03 09:46:13;;;;;;;;;11.00;10.25;;;;;22.74;45.65;101114.25;5101001;27;46112;-56
2022/06/03 09:48:41;;;;;;;;;11.50;9.75;;;;;22.85;45.34;101114.03;5100995;27;45245;-55
2022/06/03 09:51:19;;;;;;;;;14.00;10.00;;;;;22.94;45.56;101114.91;5100926;27;45238;-55
2022/06/03 09:53:45;;;;;;;;;11.75;10.25;;;;;23.03;45.29;101121.97;5100883;27;45393;-57
2022/06/03 09:56:32;;;;;;;;;9.50;9.50;;;;;23.16;45.39;101129.59;5103819;27;46074;-56
2022/06/03 09:59:01;;;;;;;;;9.50;9.50;;;;;23.26;45.37;101132.97;5104509;27;45261;-57
2022/06/03 10:01:28;;;;;;;;;14.50;11.50;;;;;23.31;45.72;101136.88;5104859;27;45264;-56
2022/06/03 10:04:05;;;;;;;;;10.75;9.00;;;;;23.37;45.74;101152.31;5104497;27;45618;-55
2022/06/03 10:06:43;;;;;;;;;10.50;9.50;;;;;23.38;45.34;101140.59;5104199;27;45326;-56
2022/06/03 10:14:39;;;;;;;;;13.50;12.50;;;;;23.42;45.41;101143.78;5104494;27;45155;-56
2022/06/03 10:17:11;;;;;;;;;13.00;11.00;;;;;23.44;45.80;101130.16;5104189;27;46227;-56
2022/06/03 10:19:37;;;;;;;;;14.00;13.75;;;;;23.44;45.40;101138.22;5103990;27;45469;-57
2022/06/03 10:22:09;;;;;;;;;14.00;12.75;;;;;23.46;45.30;101141.56;5104105;27;45244;-56
2022/06/03 10:24:34;;;;;;;;;29.00;26.50;;;;;23.45;45.62;101132.66;5103969;27;45537;-56
2022/06/03 10:27:04;;;;;;;;;23.00;18.75;;;;;23.45;45.89;101124.59;5103917;27;45430;-57
2022/06/03 10:29:30;;;;;;;;;12.50;12.25;;;;;23.47;45.58;101122.63;5103883;27;45278;-57
2022/06/03 10:32:06;;;;;;;;;13.25;13.25;;;;;23.48;45.62;101116.22;5104055;27;45286;-57
2022/06/03 10:34:36;;;;;;;;;11.50;11.50;;;;;23.51;46.02;101121.25;5103904;27;45388;-56
2022/06/03 10:37:05;;;;;;;;;12.50;12.50;;;;;23.52;45.52;101117.56;5103464;27;45404;-57
2022/06/03 10:39:31;;;;;;;;;16.75;15.25;;;;;23.56;46.05;101107.34;5103638;27;45207;-57
2022/06/03 10:41:58;;;;;;;;;18.50;14.00;;;;;23.59;45.32;101110.50;5103741;27;45255;-57
2022/06/03 10:44:32;;;;;;;;;13.00;13.00;;;;;23.61;45.44;101118.44;5103753;27;45302;-56
2022/06/03 10:47:05;;;;;;;;;16.00;12.75;;;;;23.65;45.79;101112.56;5103402;27;46329;-57
2022/06/03 10:49:51;;;;;;;;;15.00;14.00;;;;;23.70;45.48;101112.09;5103476;27;45262;-54
2022/06/03 11:01:41;;;;;;;;;13.25;12.00;;;;;24.04;46.19;101113.75;5103747;27;45287;-55
2022/06/03 11:04:07;;;;;;;;;14.00;13.00;;;;;24.03;45.99;101110.22;5089306;27;45366;-56
2022/06/03 11:06:38;;;;;;;;;10.75;10.75;;;;;24.10;46.08;101113.94;5102833;27;45189;-56
2022/06/03 11:09:07;;;;;;;;;14.00;13.75;;;;;24.18;46.16;101110.38;5103506;27;46175;-57
2022/06/03 11:11:41;;;;;;;;;14.50;14.50;;;;;24.22;46.13;101107.16;5103262;27;45223;-57
2022/06/03 11:14:34;;;;;;;;;14.50;14.50;;;;;24.32;46.23;101112.38;5103496;27;45261;-55
2022/06/03 11:17:08;;;;;;;;;12.25;12.00;;;;;24.42;46.52;101126.53;5103334;27;45142;-57
2022/06/03 11:19:49;;;;;;;;;19.00;15.75;;;;;24.51;46.21;101119.25;5102954;27;45215;-57
2022/06/03 11:22:19;;;;;;;;;15.50;14.75;;;;;24.56;46.64;101129.50;5102860;27;45322;-56
2022/06/03 11:25:07;;;;;;;;;15.00;12.75;;;;;24.60;46.32;101133.56;5103259;27;45394;-56
2022/06/03 11:27:47;;;;;;;;;12.25;12.00;;;;;24.63;46.23;101142.09;5103472;27;45558;-56
2022/06/03 11:30:34;;;;;;;;;13.75;13.25;;;;;24.64;46.61;101141.09;5103031;27;45288;-56
2022/06/03 11:33:07;;;;;;;;;17.50;14.00;;;;;24.64;46.05;101145.66;5085816;27;45338;-56
2022/06/03 11:35:41;;;;;;;;;15.00;14.00;;;;;24.60;45.91;101147.84;5102967;27;45589;-57
2022/06/03 11:38:11;;;;;;;;;13.00;12.00;;;;;24.56;46.58;101146.50;5102831;27;45291;-57
2022/06/03 11:40:45;;;;;;;;;15.75;13.00;;;;;24.53;46.75;101149.56;5102579;27;46123;-56
2022/06/03 11:43:24;;;;;;;;;16.50;12.50;;;;;24.50;46.70;101141.84;5102739;27;45285;-53
2022/06/03 11:45:57;;;;;;;;;16.25;12.75;;;;;24.45;46.61;101142.34;5102766;27;45313;-57
2022/06/03 11:48:33;;;;;;;;;15.00;14.25;;;;;24.42;46.81;101140.00;5102757;27;45476;-56
2022/06/03 11:51:00;;;;;;;;;15.25;13.25;;;;;24.40;46.50;101139.31;5102332;27;45429;-56
2022/06/03 11:53:30;;;;;;;;;12.75;11.50;;;;;24.37;47.08;101152.28;5102089;27;45322;-56
2022/06/03 11:56:02;;;;;;;;;12.00;12.00;;;;;24.36;46.63;101147.91;5102323;27;45208;-57
2022/06/03 11:58:48;;;;;;;;;11.25;11.25;;;;;24.31;46.67;101148.38;5102405;27;45303;-57
2022/06/03 12:01:33;;;;;;;;;12.25;11.75;;;;;24.29;47.07;101153.09;5102725;27;45363;-54
2022/06/03 12:04:26;;;;;;;;;10.50;10.00;;;;;24.28;46.98;101147.88;5102732;27;45448;-56
2022/06/03 12:07:11;;;;;;;;;14.00;10.25;;;;;24.26;46.92;101153.44;5102392;27;45403;-57
2022/06/03 12:10:02;;;;;;;;;10.00;8.50;;;;;24.24;47.41;101147.38;5102198;27;45351;-58
2022/06/03 12:15:33;;;;;;;;;13.00;12.25;;;;;24.16;47.25;101145.53;5102488;27;45339;-56
2022/06/03 12:18:09;;;;;;;;;11.00;9.75;;;;;24.16;47.75;101144.69;5101173;27;45273;-55
2022/06/03 12:20:52;;;;;;;;;10.00;9.75;;;;;24.13;47.45;101148.56;5101908;27;45326;-57
2022/06/03 12:23:18;;;;;;;;;10.50;8.75;;;;;24.09;47.67;101141.81;5102203;27;46131;-57
2022/06/03 12:25:51;;;;;;;;;9.25;8.75;;;;;24.08;47.57;101144.69;5102162;27;45684;-55
2022/06/03 12:28:25;;;;;;;;;11.25;10.00;;;;;24.06;48.24;101138.66;5102501;27;45192;-57
2022/06/03 12:30:58;;;;;;;;;9.50;8.75;;;;;24.02;48.37;101145.41;5102170;27;45247;-55
2022/06/03 12:33:42;;;;;;;;;10.00;8.00;;;;;23.99;48.21;101153.78;5102225;27;45275;-57
2022/06/03 12:36:39;;;;;;;;;12.00;8.50;;;;;23.91;48.34;101152.78;5101675;27;45458;-57
2022/06/03 12:39:05;;;;;;;;;13.50;12.00;;;;;23.85;48.58;101144.53;5102086;27;45169;-56
2022/06/03 12:41:46;;;;;;;;;14.75;14.00;;;;;23.80;48.70;101157.66;5102293;27;45828;-57
2022/06/03 12:44:33;;;;;;;;;14.50;10.00;;;;;23.72;49.05;101158.47;5101726;27;45449;-56
2022/06/03 12:47:33;;;;;;;;;14.00;13.25;;;;;23.63;48.97;101154.09;5101921;27;45263;-57
2022/06/03 12:50:05;;;;;;;;;9.75;9.25;;;;;23.54;49.36;101155.91;5101891;27;45339;-57
2022/06/03 12:52:31;;;;;;;;;9.75;9.75;;;;;23.47;49.91;101156.72;5101669;27;45550;-57
2022/06/03 12:55:01;;;;;;;;;13.00;10.00;;;;;23.42;49.75;101154.53;5101308;27;45315;-57